createdAt,value
2018-12-30T00:00:07.424Z,6.28
2018-12-30T00:01:07.364Z,6.26
2018-12-30T00:02:07.300Z,6.29
2018-12-30T00:03:07.239Z,6.26
2018-12-30T00:04:07.177Z,6.22
2018-12-30T00:05:07.116Z,6.28
2018-12-30T00:06:07.055Z,6.19
2018-12-30T00:07:06.993Z,6.22
2018-12-30T00:08:06.931Z,6.29
2018-12-30T00:09:06.868Z,6.29
2018-12-30T00:10:06.807Z,6.29
2018-12-30T00:11:06.745Z,6.28
2018-12-30T00:12:06.684Z,6.22
2018-12-30T00:13:06.622Z,6.22
2018-12-30T00:14:06.560Z,6.21
2018-12-30T00:15:06.501Z,6.21
2018-12-30T00:16:06.436Z,6.21
2018-12-30T00:17:06.375Z,6.30
2018-12-30T00:18:06.311Z,6.21
2018-12-30T00:19:06.250Z,6.22
2018-12-30T00:20:06.189Z,6.29
2018-12-30T00:21:09.133Z,6.21
2018-12-30T00:22:06.069Z,6.26
2018-12-30T00:23:06.004Z,6.25
2018-12-30T00:24:05.942Z,6.25
2018-12-30T00:25:05.882Z,6.21
2018-12-30T00:26:05.819Z,6.22
2018-12-30T00:27:05.763Z,6.22
2018-12-30T00:28:05.697Z,6.26
2018-12-30T00:29:05.641Z,6.26
2018-12-30T00:30:05.572Z,6.25
2018-12-30T00:31:05.509Z,6.26
2018-12-30T00:32:05.447Z,6.26
2018-12-30T00:33:05.392Z,6.22
2018-12-30T00:34:05.323Z,6.26
2018-12-30T00:35:05.261Z,6.26
2018-12-30T00:36:05.205Z,6.26
2018-12-30T00:37:05.138Z,6.25
2018-12-30T00:38:05.089Z,6.26
2018-12-30T00:39:05.015Z,6.21
2018-12-30T00:40:04.953Z,6.22
2018-12-30T00:41:04.891Z,6.21
2018-12-30T00:42:04.829Z,6.26
2018-12-30T00:43:04.769Z,6.25
2018-12-30T00:44:04.707Z,6.22
2018-12-30T00:45:04.643Z,6.26
2018-12-30T00:46:04.582Z,6.25
2018-12-30T00:47:04.521Z,6.21
2018-12-30T00:48:04.458Z,6.25
2018-12-30T00:49:04.397Z,6.21
2018-12-30T00:50:04.335Z,6.26
2018-12-30T00:51:04.275Z,6.21
2018-12-30T00:52:04.222Z,6.29
2018-12-30T00:53:04.169Z,6.21
2018-12-30T00:54:04.089Z,6.29
2018-12-30T00:55:04.026Z,6.28
2018-12-30T00:56:04.042Z,6.22
2018-12-30T00:57:03.903Z,6.21
2018-12-30T00:58:03.845Z,6.22
2018-12-30T00:59:03.779Z,6.26
2018-12-30T01:00:03.717Z,6.26
2018-12-30T01:01:03.659Z,6.22
2018-12-30T01:02:03.593Z,6.28
2018-12-30T01:03:03.531Z,6.22
2018-12-30T01:04:03.470Z,6.21
2018-12-30T01:05:03.411Z,6.26
2018-12-30T01:06:03.346Z,6.26
2018-12-30T01:07:03.284Z,6.25
2018-12-30T01:08:03.230Z,6.22
2018-12-30T01:09:03.160Z,6.29
2018-12-30T01:10:03.100Z,6.26
2018-12-30T01:11:03.037Z,6.19
2018-12-30T01:12:02.975Z,6.28
2018-12-30T01:13:02.918Z,6.28
2018-12-30T01:14:02.852Z,6.25
2018-12-30T01:15:02.790Z,6.21
2018-12-30T01:16:02.729Z,6.29
2018-12-30T01:17:02.667Z,6.29
2018-12-30T01:18:02.605Z,6.22
2018-12-30T01:19:02.543Z,6.21
2018-12-30T01:20:02.481Z,6.25
2018-12-30T01:21:02.419Z,6.30
2018-12-30T01:22:02.357Z,6.18
2018-12-30T01:23:02.296Z,6.25
2018-12-30T01:24:02.234Z,6.22
2018-12-30T01:25:02.177Z,6.26
2018-12-30T01:26:02.111Z,6.25
2018-12-30T01:27:02.051Z,6.25
2018-12-30T01:28:01.986Z,6.26
2018-12-30T01:29:01.923Z,6.21
2018-12-30T01:30:01.864Z,6.21
2018-12-30T01:31:01.801Z,6.21
2018-12-30T01:32:01.739Z,6.26
2018-12-30T01:33:01.678Z,6.25
2018-12-30T01:34:01.614Z,6.18
2018-12-30T01:35:01.556Z,6.22
2018-12-30T01:36:01.496Z,6.25
2018-12-30T01:37:01.431Z,6.21
2018-12-30T01:38:01.372Z,6.19
2018-12-30T01:39:01.305Z,6.21
2018-12-30T01:40:01.244Z,6.26
2018-12-30T01:41:01.183Z,6.28
2018-12-30T01:42:01.120Z,6.28
2018-12-30T01:43:01.227Z,6.18
2018-12-30T01:44:00.997Z,6.25
2018-12-30T01:45:00.934Z,6.26
2018-12-30T01:46:00.874Z,6.25
2018-12-30T01:47:00.811Z,6.26
2018-12-30T01:48:00.750Z,6.26
2018-12-30T01:49:00.687Z,6.25
2018-12-30T01:50:00.625Z,6.22
2018-12-30T01:51:00.565Z,6.19
2018-12-30T01:52:00.503Z,6.19
2018-12-30T01:53:00.439Z,6.22
2018-12-30T01:54:00.378Z,6.18
2018-12-30T01:55:00.323Z,6.22
2018-12-30T01:56:00.256Z,6.26
2018-12-30T01:57:00.192Z,6.26
2018-12-30T01:58:00.131Z,6.21
2018-12-30T01:59:00.070Z,6.19
2018-12-30T02:00:00.012Z,6.22
2018-12-30T02:00:59.945Z,6.25
2018-12-30T02:01:59.884Z,6.25
2018-12-30T02:02:59.822Z,6.14
2018-12-30T02:03:59.763Z,6.16
2018-12-30T02:04:59.698Z,6.22
2018-12-30T02:05:59.638Z,6.19
2018-12-30T02:06:59.574Z,6.26
2018-12-30T02:07:59.523Z,6.21
2018-12-30T02:08:59.450Z,6.18
2018-12-30T02:09:59.391Z,6.25
2018-12-30T02:10:59.328Z,6.29
2018-12-30T02:11:59.265Z,6.25
2018-12-30T02:12:59.202Z,6.25
2018-12-30T02:13:59.142Z,6.21
2018-12-30T02:14:59.080Z,6.21
2018-12-30T02:15:59.018Z,6.25
2018-12-30T02:16:58.956Z,6.25
2018-12-30T02:17:58.895Z,6.25
2018-12-30T02:18:58.833Z,6.21
2018-12-30T02:19:58.771Z,6.25
2018-12-30T02:20:58.712Z,6.22
2018-12-30T02:21:58.650Z,6.28
2018-12-30T02:22:58.585Z,6.22
2018-12-30T02:23:58.526Z,6.25
2018-12-30T02:24:58.465Z,6.25
2018-12-30T02:25:58.400Z,6.22
2018-12-30T02:26:58.344Z,6.29
2018-12-30T02:27:58.277Z,6.26
2018-12-30T02:28:58.216Z,6.28
2018-12-30T02:29:58.154Z,6.26
2018-12-30T02:30:58.098Z,6.25
2018-12-30T02:31:58.029Z,6.18
2018-12-30T02:32:57.968Z,6.28
2018-12-30T02:33:57.906Z,6.26
2018-12-30T02:34:57.843Z,6.28
2018-12-30T02:35:57.783Z,6.25
2018-12-30T02:36:57.808Z,6.30
2018-12-30T02:37:57.658Z,6.26
2018-12-30T02:38:57.598Z,6.26
2018-12-30T02:39:57.537Z,6.29
2018-12-30T02:40:57.472Z,6.26
2018-12-30T02:41:57.410Z,6.26
2018-12-30T02:42:57.350Z,6.30
2018-12-30T02:43:57.288Z,6.21
2018-12-30T02:44:57.231Z,6.21
2018-12-30T02:45:57.165Z,6.22
2018-12-30T02:46:57.102Z,6.21
2018-12-30T02:47:57.046Z,6.21
2018-12-30T02:48:56.978Z,6.26
2018-12-30T02:49:56.929Z,6.28
2018-12-30T02:50:56.856Z,6.28
2018-12-30T02:51:56.796Z,6.21
2018-12-30T02:52:56.731Z,6.25
2018-12-30T02:53:56.669Z,6.28
2018-12-30T02:54:56.612Z,6.25
2018-12-30T02:55:56.547Z,6.26
2018-12-30T02:56:56.483Z,6.25
2018-12-30T02:57:56.427Z,6.28
2018-12-30T02:58:56.360Z,6.26
2018-12-30T02:59:56.306Z,6.28
2018-12-30T03:00:56.237Z,6.29
2018-12-30T03:01:56.175Z,6.25
2018-12-30T03:02:56.114Z,6.21
2018-12-30T03:03:56.051Z,6.25
2018-12-30T03:04:55.989Z,6.29
2018-12-30T03:05:55.928Z,6.28
2018-12-30T03:06:55.866Z,6.25
2018-12-30T03:07:55.805Z,6.28
2018-12-30T03:08:55.741Z,6.26
2018-12-30T03:09:55.680Z,6.22
2018-12-30T03:10:55.619Z,6.22
2018-12-30T03:11:55.558Z,6.26
2018-12-30T03:12:55.495Z,6.21
2018-12-30T03:13:55.433Z,6.22
2018-12-30T03:14:55.371Z,6.29
2018-12-30T03:15:55.309Z,6.21
2018-12-30T03:16:55.249Z,6.26
2018-12-30T03:17:55.188Z,6.29
2018-12-30T03:18:55.127Z,6.25
2018-12-30T03:19:55.065Z,6.30
2018-12-30T03:20:55.015Z,6.28
2018-12-30T03:21:59.138Z,6.29
2018-12-30T03:22:54.884Z,6.29
2018-12-30T03:23:54.816Z,6.29
2018-12-30T03:24:54.754Z,6.29
2018-12-30T03:25:54.692Z,6.28
2018-12-30T03:26:54.631Z,6.29
2018-12-30T03:27:54.569Z,6.28
2018-12-30T03:28:54.508Z,6.30
2018-12-30T03:29:54.445Z,6.28
2018-12-30T03:30:54.384Z,6.25
2018-12-30T03:31:54.322Z,6.32
2018-12-30T03:32:54.260Z,6.28
2018-12-30T03:33:54.199Z,6.26
2018-12-30T03:34:54.136Z,6.22
2018-12-30T03:35:54.074Z,6.26
2018-12-30T03:36:54.012Z,6.28
2018-12-30T03:37:53.963Z,6.30
2018-12-30T03:38:53.888Z,6.28
2018-12-30T03:39:53.826Z,6.25
2018-12-30T03:40:53.765Z,6.30
2018-12-30T03:41:53.705Z,6.25
2018-12-30T03:42:53.643Z,6.38
2018-12-30T03:43:53.580Z,6.22
2018-12-30T03:44:53.520Z,6.22
2018-12-30T03:45:53.457Z,6.21
2018-12-30T03:46:53.394Z,6.32
2018-12-30T03:47:53.332Z,6.29
2018-12-30T03:48:53.273Z,6.26
2018-12-30T03:49:53.210Z,6.26
2018-12-30T03:50:53.147Z,6.26
2018-12-30T03:51:53.088Z,6.28
2018-12-30T03:52:53.022Z,6.26
2018-12-30T03:53:52.963Z,6.28
2018-12-30T03:54:52.901Z,6.29
2018-12-30T03:55:52.838Z,6.32
2018-12-30T03:56:52.776Z,6.22
2018-12-30T03:57:52.715Z,6.33
2018-12-30T03:58:52.654Z,6.25
2018-12-30T03:59:52.591Z,6.22
2018-12-30T04:00:52.534Z,6.26
2018-12-30T04:01:52.467Z,6.26
2018-12-30T04:02:52.407Z,6.21
2018-12-30T04:03:52.344Z,6.26
2018-12-30T04:04:52.281Z,6.28
2018-12-30T04:05:52.219Z,6.26
2018-12-30T04:06:52.158Z,6.32
2018-12-30T04:07:52.097Z,6.33
2018-12-30T04:08:52.035Z,6.29
2018-12-30T04:09:51.975Z,6.30
2018-12-30T04:10:51.912Z,6.28
2018-12-30T04:11:51.849Z,6.22
2018-12-30T04:12:51.802Z,6.25
2018-12-30T04:13:51.726Z,6.22
2018-12-30T04:14:51.664Z,6.22
2018-12-30T04:15:51.604Z,6.25
2018-12-30T04:16:51.550Z,6.33
2018-12-30T04:17:51.481Z,6.33
2018-12-30T04:18:51.418Z,6.30
2018-12-30T04:19:51.357Z,6.28
2018-12-30T04:20:51.296Z,6.41
2018-12-30T04:21:51.231Z,6.26
2018-12-30T04:22:51.170Z,6.33
2018-12-30T04:23:51.110Z,6.38
2018-12-30T04:24:51.048Z,6.38
2018-12-30T04:25:50.987Z,6.28
2018-12-30T04:26:50.926Z,6.25
2018-12-30T04:27:50.865Z,6.36
2018-12-30T04:28:50.799Z,6.33
2018-12-30T04:29:50.737Z,6.28
2018-12-30T04:30:50.676Z,6.38
2018-12-30T04:31:50.666Z,6.41
2018-12-30T04:32:50.557Z,6.36
2018-12-30T04:33:50.491Z,6.40
2018-12-30T04:34:50.429Z,6.36
2018-12-30T04:35:50.373Z,6.40
2018-12-30T04:36:50.305Z,6.38
2018-12-30T04:37:50.243Z,6.29
2018-12-30T04:38:50.187Z,6.38
2018-12-30T04:39:50.127Z,6.36
2018-12-30T04:40:50.058Z,6.36
2018-12-30T04:41:49.998Z,6.38
2018-12-30T04:42:49.936Z,6.35
2018-12-30T04:43:49.874Z,6.32
2018-12-30T04:44:49.817Z,6.38
2018-12-30T04:45:49.749Z,6.41
2018-12-30T04:46:49.689Z,6.38
2018-12-30T04:47:49.627Z,6.36
2018-12-30T04:48:49.565Z,6.44
2018-12-30T04:49:49.503Z,6.30
2018-12-30T04:50:49.441Z,6.32
2018-12-30T04:51:49.382Z,6.38
2018-12-30T04:52:49.324Z,6.41
2018-12-30T04:53:49.257Z,6.36
2018-12-30T04:54:49.197Z,6.44
2018-12-30T04:55:49.132Z,6.41
2018-12-30T04:56:49.069Z,6.43
2018-12-30T04:57:49.070Z,6.38
2018-12-30T04:58:48.946Z,6.38
2018-12-30T04:59:48.886Z,6.38
2018-12-30T05:00:48.822Z,6.41
2018-12-30T05:01:48.764Z,6.38
2018-12-30T05:02:48.699Z,6.46
2018-12-30T05:03:48.641Z,6.40
2018-12-30T05:04:48.581Z,6.43
2018-12-30T05:05:48.522Z,6.36
2018-12-30T05:06:48.452Z,6.44
2018-12-30T05:07:48.392Z,6.40
2018-12-30T05:08:48.329Z,6.43
2018-12-30T05:09:48.268Z,6.40
2018-12-30T05:10:48.206Z,6.38
2018-12-30T05:11:48.149Z,6.38
2018-12-30T05:12:48.081Z,6.40
2018-12-30T05:13:48.023Z,6.41
2018-12-30T05:14:47.962Z,6.38
2018-12-30T05:15:47.900Z,6.36
2018-12-30T05:16:47.837Z,6.36
2018-12-30T05:17:47.782Z,6.35
2018-12-30T05:18:47.712Z,6.41
2018-12-30T05:19:47.651Z,6.40
2018-12-30T05:20:47.591Z,6.40
2018-12-30T05:21:47.529Z,6.44
2018-12-30T05:22:47.465Z,6.38
2018-12-30T05:23:47.405Z,6.48
2018-12-30T05:24:47.341Z,6.40
2018-12-30T05:25:47.280Z,6.44
2018-12-30T05:26:47.221Z,6.40
2018-12-30T05:27:47.157Z,6.41
2018-12-30T05:28:47.095Z,6.41
2018-12-30T05:29:47.033Z,6.40
2018-12-30T05:30:46.971Z,6.40
2018-12-30T05:31:46.912Z,6.44
2018-12-30T05:32:46.847Z,6.40
2018-12-30T05:33:46.788Z,6.40
2018-12-30T05:34:46.725Z,6.41
2018-12-30T05:35:46.663Z,6.41
2018-12-30T05:36:46.600Z,6.44
2018-12-30T05:37:46.541Z,6.41
2018-12-30T05:38:46.477Z,6.47
2018-12-30T05:39:46.416Z,6.44
2018-12-30T05:40:46.354Z,6.41
2018-12-30T05:41:46.304Z,6.50
2018-12-30T05:42:46.231Z,6.44
2018-12-30T05:43:46.170Z,6.48
2018-12-30T05:44:46.106Z,6.41
2018-12-30T05:45:46.054Z,6.40
2018-12-30T05:46:45.984Z,6.48
2018-12-30T05:47:45.923Z,6.46
2018-12-30T05:48:45.866Z,6.48
2018-12-30T05:49:45.799Z,6.43
2018-12-30T05:50:45.737Z,6.40
2018-12-30T05:51:45.675Z,6.48
2018-12-30T05:52:45.614Z,6.48
2018-12-30T05:53:45.551Z,6.41
2018-12-30T05:54:45.490Z,6.38
2018-12-30T05:55:45.428Z,6.47
2018-12-30T05:56:45.382Z,6.47
2018-12-30T05:57:45.309Z,6.44
2018-12-30T05:58:45.243Z,6.48
2018-12-30T05:59:45.187Z,6.50
2018-12-30T06:00:45.121Z,6.47
2018-12-30T06:01:45.057Z,6.46
2018-12-30T06:02:44.997Z,6.50
2018-12-30T06:03:44.936Z,6.50
2018-12-30T06:04:44.924Z,6.48
2018-12-30T06:05:44.811Z,6.47
2018-12-30T06:06:44.750Z,6.48
2018-12-30T06:07:44.689Z,6.50
2018-12-30T06:08:44.625Z,6.50
2018-12-30T06:09:44.564Z,6.41
2018-12-30T06:10:44.503Z,6.48
2018-12-30T06:11:44.441Z,6.50
2018-12-30T06:12:44.377Z,6.40
2018-12-30T06:13:44.321Z,6.47
2018-12-30T06:14:44.257Z,6.46
2018-12-30T06:15:44.196Z,6.44
2018-12-30T06:16:44.132Z,6.48
2018-12-30T06:17:44.070Z,6.46
2018-12-30T06:18:44.010Z,6.41
2018-12-30T06:19:43.947Z,6.48
2018-12-30T06:20:43.885Z,6.47
2018-12-30T06:21:43.823Z,6.48
2018-12-30T06:22:49.537Z,6.50
2018-12-30T06:23:43.700Z,6.40
2018-12-30T06:24:43.640Z,6.50
2018-12-30T06:25:43.580Z,6.43
2018-12-30T06:26:43.515Z,6.46
2018-12-30T06:27:43.455Z,6.48
2018-12-30T06:28:43.399Z,6.48
2018-12-30T06:29:43.330Z,6.48
2018-12-30T06:30:43.268Z,6.47
2018-12-30T06:31:43.215Z,6.53
2018-12-30T06:32:43.145Z,6.48
2018-12-30T06:33:43.084Z,6.48
2018-12-30T06:34:43.025Z,6.47
2018-12-30T06:35:42.962Z,6.48
2018-12-30T06:36:42.898Z,6.50
2018-12-30T06:37:42.837Z,6.36
2018-12-30T06:38:42.776Z,6.44
2018-12-30T06:39:42.714Z,6.38
2018-12-30T06:40:42.652Z,6.50
2018-12-30T06:41:42.592Z,6.46
2018-12-30T06:42:42.533Z,6.50
2018-12-30T06:43:42.466Z,6.48
2018-12-30T06:44:42.405Z,6.50
2018-12-30T06:45:42.343Z,6.50
2018-12-30T06:46:42.283Z,6.44
2018-12-30T06:47:42.220Z,6.50
2018-12-30T06:48:42.157Z,6.50
2018-12-30T06:49:42.096Z,6.50
2018-12-30T06:50:42.036Z,6.40
2018-12-30T06:51:41.973Z,6.50
2018-12-30T06:52:41.913Z,6.38
2018-12-30T06:53:41.853Z,6.46
2018-12-30T06:54:41.787Z,6.48
2018-12-30T06:55:41.727Z,6.47
2018-12-30T06:56:41.664Z,6.40
2018-12-30T06:57:41.602Z,6.50
2018-12-30T06:58:41.542Z,6.47
2018-12-30T06:59:41.479Z,6.43
2018-12-30T07:00:41.417Z,6.43
2018-12-30T07:01:41.356Z,6.46
2018-12-30T07:02:41.294Z,6.51
2018-12-30T07:03:41.237Z,6.48
2018-12-30T07:04:41.172Z,6.50
2018-12-30T07:05:41.110Z,6.38
2018-12-30T07:06:41.048Z,6.43
2018-12-30T07:07:40.987Z,6.40
2018-12-30T07:08:40.925Z,6.51
2018-12-30T07:09:40.863Z,6.48
2018-12-30T07:10:40.801Z,6.43
2018-12-30T07:11:40.739Z,6.53
2018-12-30T07:12:40.679Z,6.50
2018-12-30T07:13:40.616Z,6.53
2018-12-30T07:14:40.554Z,6.54
2018-12-30T07:15:40.493Z,6.51
2018-12-30T07:16:40.434Z,6.48
2018-12-30T07:17:40.372Z,6.48
2018-12-30T07:18:40.308Z,6.51
2018-12-30T07:19:40.246Z,6.47
2018-12-30T07:20:40.183Z,6.48
2018-12-30T07:21:40.123Z,6.53
2018-12-30T07:22:40.062Z,6.50
2018-12-30T07:23:40.001Z,6.50
2018-12-30T07:24:39.937Z,6.41
2018-12-30T07:25:39.876Z,6.50
2018-12-30T07:26:39.814Z,6.53
2018-12-30T07:27:39.754Z,6.51
2018-12-30T07:28:39.690Z,6.51
2018-12-30T07:29:39.630Z,6.44
2018-12-30T07:30:39.571Z,6.50
2018-12-30T07:31:39.508Z,6.53
2018-12-30T07:32:39.444Z,6.54
2018-12-30T07:33:39.385Z,6.54
2018-12-30T07:34:39.321Z,6.50
2018-12-30T07:35:39.260Z,6.48
2018-12-30T07:36:39.199Z,6.56
2018-12-30T07:37:39.136Z,6.51
2018-12-30T07:38:39.076Z,6.56
2018-12-30T07:39:39.015Z,6.51
2018-12-30T07:40:38.951Z,6.54
2018-12-30T07:41:38.890Z,6.53
2018-12-30T07:42:38.830Z,6.56
2018-12-30T07:43:38.767Z,6.47
2018-12-30T07:44:38.706Z,6.63
2018-12-30T07:45:38.646Z,6.48
2018-12-30T07:46:38.590Z,6.56
2018-12-30T07:47:38.522Z,6.48
2018-12-30T07:48:38.458Z,6.46
2018-12-30T07:49:38.397Z,6.50
2018-12-30T07:50:38.335Z,6.58
2018-12-30T07:51:38.274Z,6.50
2018-12-30T07:52:38.223Z,6.47
2018-12-30T07:53:38.151Z,6.51
2018-12-30T07:54:38.126Z,6.62
2018-12-30T07:55:38.027Z,6.47
2018-12-30T07:56:37.964Z,6.61
2018-12-30T07:57:37.906Z,6.58
2018-12-30T07:58:37.842Z,6.62
2018-12-30T07:59:37.781Z,6.53
2018-12-30T08:00:37.719Z,6.61
2018-12-30T08:01:37.658Z,6.50
2018-12-30T08:02:37.596Z,6.62
2018-12-30T08:03:37.534Z,6.53
2018-12-30T08:04:37.471Z,6.51
2018-12-30T08:05:37.410Z,6.62
2018-12-30T08:06:37.349Z,6.59
2018-12-30T08:07:37.287Z,6.58
2018-12-30T08:08:37.225Z,6.63
2018-12-30T08:09:37.163Z,6.50
2018-12-30T08:10:37.122Z,6.56
2018-12-30T08:11:37.045Z,6.51
2018-12-30T08:12:36.983Z,6.56
2018-12-30T08:13:36.924Z,6.53
2018-12-30T08:14:36.857Z,6.51
2018-12-30T08:15:36.794Z,6.56
2018-12-30T08:16:36.732Z,6.59
2018-12-30T08:17:36.671Z,6.47
2018-12-30T08:18:36.610Z,6.58
2018-12-30T08:19:36.549Z,6.59
2018-12-30T08:20:36.486Z,6.61
2018-12-30T08:21:36.427Z,6.53
2018-12-30T08:22:36.365Z,6.58
2018-12-30T08:23:36.313Z,6.65
2018-12-30T08:24:36.239Z,6.58
2018-12-30T08:25:36.182Z,6.51
2018-12-30T08:26:36.117Z,6.58
2018-12-30T08:27:36.056Z,6.61
2018-12-30T08:28:35.993Z,6.59
2018-12-30T08:29:35.937Z,6.47
2018-12-30T08:30:35.871Z,6.56
2018-12-30T08:31:35.809Z,6.56
2018-12-30T08:32:35.751Z,6.54
2018-12-30T08:33:35.686Z,6.51
2018-12-30T08:34:35.625Z,6.47
2018-12-30T08:35:35.564Z,6.53
2018-12-30T08:36:36.394Z,6.61
2018-12-30T08:37:35.443Z,6.48
2018-12-30T08:38:35.384Z,6.59
2018-12-30T08:39:35.317Z,6.48
2018-12-30T08:40:35.258Z,6.53
2018-12-30T08:41:35.195Z,6.59
2018-12-30T08:42:35.131Z,6.65
2018-12-30T08:43:35.070Z,6.62
2018-12-30T08:44:35.010Z,6.59
2018-12-30T08:45:34.946Z,6.51
2018-12-30T08:46:34.888Z,6.58
2018-12-30T08:47:34.824Z,6.56
2018-12-30T08:48:34.761Z,6.58
2018-12-30T08:49:34.702Z,6.61
2018-12-30T08:50:34.645Z,6.58
2018-12-30T08:51:34.577Z,6.59
2018-12-30T08:52:34.517Z,6.65
2018-12-30T08:53:34.456Z,6.58
2018-12-30T08:54:34.393Z,6.65
2018-12-30T08:55:34.331Z,6.65
2018-12-30T08:56:34.269Z,6.61
2018-12-30T08:57:34.210Z,6.61
2018-12-30T08:58:34.147Z,6.63
2018-12-30T08:59:34.084Z,6.62
2018-12-30T09:00:34.023Z,6.63
2018-12-30T09:01:33.962Z,6.61
2018-12-30T09:02:33.904Z,6.62
2018-12-30T09:03:33.838Z,6.63
2018-12-30T09:04:33.778Z,6.63
2018-12-30T09:05:33.715Z,6.68
2018-12-30T09:06:33.655Z,6.69
2018-12-30T09:07:33.592Z,6.65
2018-12-30T09:08:33.532Z,6.61
2018-12-30T09:09:33.470Z,6.61
2018-12-30T09:10:33.408Z,6.58
2018-12-30T09:11:33.352Z,6.66
2018-12-30T09:12:33.285Z,6.58
2018-12-30T09:13:33.223Z,6.62
2018-12-30T09:14:33.163Z,6.56
2018-12-30T09:15:33.102Z,6.68
2018-12-30T09:16:33.041Z,6.72
2018-12-30T09:17:32.979Z,6.62
2018-12-30T09:18:32.915Z,6.69
2018-12-30T09:19:32.854Z,6.62
2018-12-30T09:20:32.791Z,6.69
2018-12-30T09:21:32.729Z,6.62
2018-12-30T09:22:32.669Z,6.68
2018-12-30T09:23:37.205Z,6.72
2018-12-30T09:24:32.546Z,6.69
2018-12-30T09:25:32.489Z,6.68
2018-12-30T09:26:32.423Z,6.61
2018-12-30T09:27:32.364Z,6.66
2018-12-30T09:28:32.307Z,6.72
2018-12-30T09:29:32.259Z,6.72
2018-12-30T09:30:32.177Z,6.66
2018-12-30T09:31:32.116Z,6.66
2018-12-30T09:32:32.069Z,6.71
2018-12-30T09:33:31.991Z,6.71
2018-12-30T09:34:31.932Z,6.62
2018-12-30T09:35:31.869Z,6.65
2018-12-30T09:36:31.812Z,6.72
2018-12-30T09:37:31.747Z,6.63
2018-12-30T09:38:31.693Z,6.73
2018-12-30T09:39:31.622Z,6.76
2018-12-30T09:40:31.563Z,6.72
2018-12-30T09:41:31.499Z,6.72
2018-12-30T09:42:31.438Z,6.68
2018-12-30T09:43:31.377Z,6.76
2018-12-30T09:44:31.372Z,6.73
2018-12-30T09:45:31.253Z,6.66
2018-12-30T09:46:31.192Z,6.66
2018-12-30T09:47:31.131Z,6.71
2018-12-30T09:48:33.834Z,6.77
2018-12-30T09:49:31.006Z,6.69
2018-12-30T09:50:30.945Z,6.72
2018-12-30T09:51:30.889Z,6.72
2018-12-30T09:52:30.822Z,6.72
2018-12-30T09:53:30.762Z,6.69
2018-12-30T09:54:30.700Z,6.72
2018-12-30T09:55:30.638Z,6.68
2018-12-30T09:56:30.576Z,6.66
2018-12-30T09:57:30.517Z,6.73
2018-12-30T09:58:30.454Z,6.72
2018-12-30T09:59:30.392Z,6.71
2018-12-30T10:00:30.330Z,6.72
2018-12-30T10:01:30.270Z,6.72
2018-12-30T10:02:30.207Z,6.71
2018-12-30T10:03:30.146Z,6.62
2018-12-30T10:04:30.085Z,6.63
2018-12-30T10:05:30.023Z,6.69
2018-12-30T10:06:29.963Z,6.68
2018-12-30T10:07:29.905Z,6.72
2018-12-30T10:08:29.840Z,6.73
2018-12-30T10:09:29.778Z,6.63
2018-12-30T10:10:29.715Z,6.71
2018-12-30T10:11:29.654Z,6.73
2018-12-30T10:12:29.600Z,6.69
2018-12-30T10:13:29.530Z,6.68
2018-12-30T10:14:29.469Z,6.72
2018-12-30T10:15:29.410Z,6.68
2018-12-30T10:16:29.346Z,6.79
2018-12-30T10:17:29.285Z,6.71
2018-12-30T10:18:29.229Z,6.66
2018-12-30T10:19:29.162Z,6.68
2018-12-30T10:20:29.101Z,6.72
2018-12-30T10:21:29.048Z,6.66
2018-12-30T10:22:28.980Z,6.77
2018-12-30T10:23:28.917Z,6.73
2018-12-30T10:24:28.855Z,6.79
2018-12-30T10:25:28.793Z,6.72
2018-12-30T10:26:28.732Z,6.77
2018-12-30T10:27:28.670Z,6.76
2018-12-30T10:28:28.609Z,6.80
2018-12-30T10:29:28.575Z,6.81
2018-12-30T10:30:28.487Z,6.81
2018-12-30T10:31:28.425Z,6.80
2018-12-30T10:32:28.362Z,6.79
2018-12-30T10:33:28.303Z,6.73
2018-12-30T10:34:28.240Z,6.83
2018-12-30T10:35:28.181Z,6.77
2018-12-30T10:36:28.117Z,6.81
2018-12-30T10:37:28.061Z,6.76
2018-12-30T10:38:27.993Z,6.81
2018-12-30T10:39:27.938Z,6.77
2018-12-30T10:40:27.879Z,6.80
2018-12-30T10:41:27.810Z,6.84
2018-12-30T10:42:27.748Z,6.79
2018-12-30T10:43:27.692Z,6.79
2018-12-30T10:44:27.625Z,6.79
2018-12-30T10:45:27.567Z,6.80
2018-12-30T10:46:27.502Z,6.81
2018-12-30T10:47:27.443Z,6.73
2018-12-30T10:48:27.381Z,6.83
2018-12-30T10:49:27.317Z,6.81
2018-12-30T10:50:27.257Z,6.77
2018-12-30T10:51:27.196Z,6.80
2018-12-30T10:52:27.139Z,6.87
2018-12-30T10:53:27.073Z,6.80
2018-12-30T10:54:27.014Z,6.83
2018-12-30T10:55:26.950Z,6.79
2018-12-30T10:56:26.888Z,6.81
2018-12-30T10:57:26.826Z,6.83
2018-12-30T10:58:26.766Z,6.87
2018-12-30T10:59:26.705Z,6.81
2018-12-30T11:00:26.642Z,6.84
2018-12-30T11:01:26.580Z,6.81
2018-12-30T11:02:26.528Z,6.90
2018-12-30T11:03:26.458Z,6.89
2018-12-30T11:04:26.396Z,6.83
2018-12-30T11:05:26.335Z,6.89
2018-12-30T11:06:26.276Z,6.86
2018-12-30T11:07:26.213Z,6.86
2018-12-30T11:08:26.152Z,6.89
2018-12-30T11:09:26.090Z,6.89
2018-12-30T11:10:26.033Z,6.80
2018-12-30T11:11:25.969Z,6.90
2018-12-30T11:12:25.911Z,6.89
2018-12-30T11:13:25.846Z,6.89
2018-12-30T11:14:25.783Z,6.86
2018-12-30T11:15:25.724Z,6.94
2018-12-30T11:16:25.662Z,6.86
2018-12-30T11:17:25.599Z,6.90
2018-12-30T11:18:25.544Z,6.86
2018-12-30T11:19:25.481Z,6.90
2018-12-30T11:20:25.415Z,6.90
2018-12-30T11:21:25.355Z,6.89
2018-12-30T11:22:25.294Z,6.91
2018-12-30T11:23:25.230Z,6.90
2018-12-30T11:24:25.170Z,6.97
2018-12-30T11:25:25.132Z,6.98
2018-12-30T11:26:25.047Z,6.97
2018-12-30T11:27:24.985Z,6.87
2018-12-30T11:28:24.925Z,6.99
2018-12-30T11:29:24.863Z,6.91
2018-12-30T11:30:24.801Z,6.91
2018-12-30T11:31:24.739Z,6.94
2018-12-30T11:32:24.678Z,6.97
2018-12-30T11:33:24.616Z,6.98
2018-12-30T11:34:24.557Z,6.98
2018-12-30T11:35:24.496Z,6.97
2018-12-30T11:36:24.432Z,6.97
2018-12-30T11:37:24.373Z,6.99
2018-12-30T11:38:24.318Z,6.97
2018-12-30T11:39:24.254Z,6.99
2018-12-30T11:40:24.186Z,6.91
2018-12-30T11:41:24.127Z,6.94
2018-12-30T11:42:24.076Z,6.97
2018-12-30T11:43:24.003Z,6.97
2018-12-30T11:44:23.941Z,7.02
2018-12-30T11:45:23.879Z,6.94
2018-12-30T11:46:23.829Z,6.99
2018-12-30T11:47:23.759Z,6.98
2018-12-30T11:48:24.003Z,6.94
2018-12-30T11:49:23.637Z,7.01
2018-12-30T11:50:23.576Z,6.95
2018-12-30T11:51:23.516Z,6.99
2018-12-30T11:52:23.450Z,6.95
2018-12-30T11:53:23.391Z,6.97
2018-12-30T11:54:23.328Z,6.97
2018-12-30T11:55:23.267Z,6.99
2018-12-30T11:56:23.286Z,6.94
2018-12-30T11:57:23.146Z,6.95
2018-12-30T11:58:23.081Z,6.98
2018-12-30T11:59:23.022Z,6.98
2018-12-30T12:00:22.961Z,7.01
2018-12-30T12:01:22.907Z,7.04
2018-12-30T12:02:24.117Z,6.97
2018-12-30T12:03:22.780Z,6.99
2018-12-30T12:04:22.714Z,7.01
2018-12-30T12:05:22.653Z,6.98
2018-12-30T12:06:22.592Z,6.95
2018-12-30T12:07:22.530Z,7.04
2018-12-30T12:08:22.476Z,7.02
2018-12-30T12:09:22.408Z,6.97
2018-12-30T12:10:22.347Z,6.94
2018-12-30T12:11:22.285Z,6.91
2018-12-30T12:12:22.225Z,6.99
2018-12-30T12:13:22.162Z,6.94
2018-12-30T12:14:22.105Z,6.97
2018-12-30T12:15:22.041Z,6.94
2018-12-30T12:16:21.979Z,6.99
2018-12-30T12:17:21.917Z,6.90
2018-12-30T12:18:21.858Z,6.97
2018-12-30T12:19:21.795Z,6.94
2018-12-30T12:20:21.733Z,7.08
2018-12-30T12:21:21.673Z,6.98
2018-12-30T12:22:21.612Z,7.12
2018-12-30T12:23:21.551Z,7.08
2018-12-30T12:24:24.473Z,7.01
2018-12-30T12:25:21.427Z,7.04
2018-12-30T12:26:21.366Z,6.98
2018-12-30T12:27:21.306Z,6.97
2018-12-30T12:28:21.243Z,7.08
2018-12-30T12:29:21.184Z,6.91
2018-12-30T12:30:21.126Z,7.09
2018-12-30T12:31:21.060Z,7.05
2018-12-30T12:32:21.001Z,7.08
2018-12-30T12:33:20.938Z,7.12
2018-12-30T12:34:20.876Z,7.02
2018-12-30T12:35:20.817Z,7.07
2018-12-30T12:36:20.753Z,7.07
2018-12-30T12:37:20.692Z,7.05
2018-12-30T12:38:20.632Z,7.04
2018-12-30T12:39:20.574Z,7.04
2018-12-30T12:40:20.508Z,7.09
2018-12-30T12:41:20.447Z,7.04
2018-12-30T12:42:20.386Z,7.08
2018-12-30T12:43:20.328Z,7.07
2018-12-30T12:44:20.265Z,7.12
2018-12-30T12:45:20.205Z,7.12
2018-12-30T12:46:20.149Z,7.07
2018-12-30T12:47:20.081Z,7.08
2018-12-30T12:48:20.018Z,7.12
2018-12-30T12:49:19.957Z,7.05
2018-12-30T12:50:19.896Z,7.09
2018-12-30T12:51:19.836Z,7.04
2018-12-30T12:52:19.773Z,7.12
2018-12-30T12:53:19.712Z,7.09
2018-12-30T12:54:19.651Z,7.09
2018-12-30T12:55:19.590Z,7.13
2018-12-30T12:56:19.533Z,7.09
2018-12-30T12:57:19.467Z,7.08
2018-12-30T12:58:19.406Z,7.12
2018-12-30T12:59:19.345Z,7.05
2018-12-30T13:00:19.284Z,7.07
2018-12-30T13:01:19.225Z,7.12
2018-12-30T13:02:19.165Z,7.12
2018-12-30T13:03:19.100Z,7.12
2018-12-30T13:04:19.042Z,7.09
2018-12-30T13:05:18.984Z,7.15
2018-12-30T13:06:18.916Z,7.13
2018-12-30T13:07:18.856Z,7.07
2018-12-30T13:08:18.796Z,7.07
2018-12-30T13:09:18.734Z,7.07
2018-12-30T13:10:18.674Z,7.09
2018-12-30T13:11:18.609Z,7.08
2018-12-30T13:12:18.550Z,7.13
2018-12-30T13:13:18.489Z,7.07
2018-12-30T13:14:18.427Z,7.05
2018-12-30T13:15:18.366Z,7.08
2018-12-30T13:16:18.303Z,7.08
2018-12-30T13:17:18.242Z,7.08